• location
  • image
mod_vvisit_countermod_vvisit_countermod_vvisit_countermod_vvisit_countermod_vvisit_countermod_vvisit_countermod_vvisit_counter
mod_vvisit_counterToday105
mod_vvisit_counterYesterday830
mod_vvisit_counterThis week935
mod_vvisit_counterLast week4472
mod_vvisit_counterThis month6763
mod_vvisit_counterLast month17680
mod_vvisit_counterAll days1032675

We have: 37 guests online
Your IP: 3.80.177.176
 , 
Today: Dec 11, 2018
Airport / Information for passengers / Persons with reduced mobility

Persons with reduced mobility

 

For all necessary information, please contact:

 

Head of Aviation Security

Algirdas Ulcinas

Tel.: +370 41 54 20 05

Fax: +370 41 54 20 06

Mob.: +370 686 24431

e-mail: This e-mail address is being protected from spambots. You need JavaScript enabled to view it

 

Today

Tuesday, 11 December 2018

Aviation Weather Forecast

[source: ADDS]
METAR
EYSA 110620Z 20003KT 160V250 0900 R14L/1100N FZFG VV002 M01/M01 Q1008 R14L/29//95 AMB NOSIG =
TAF EYSA 110506Z 1106/1115 VRB05KT 0600 FZFG VV002 TEMPO 1106/1109 1500 BR PROB40 TEMPO 1106/1109 -FZDZ BECMG 1109/1110 5000 BR BKN005
TAF
TAF EYSA 110506Z 1106/1115 VRB05KT 0600 FZFG VV002 TEMPO 1106/1109 1500 BR PROB40 TEMPO 1106/1109 -FZDZ BECMG 1109/1110 5000 BR BKN005 =
SR / SS: 06:42 / 13:59 UTC (EYSA 2018-12-11)

Search

Who's Online

We have 37 guests online

tic logo en